sensor_id;sensor_type;location;lat;lon;timestamp;pressure;altitude;pressure_sealevel;temperature;humidity
12759;BME280;20944;47.048;15.390;2023-01-01T00:00:49;98342.81;;;2.95;100.00
12759;BME280;20944;47.048;15.390;2023-01-01T00:03:18;98336.78;;;3.00;100.00
12759;BME280;20944;47.048;15.390;2023-01-01T00:05:47;98317.81;;;3.01;100.00
12759;BME280;20944;47.048;15.390;2023-01-01T00:08:16;98335.22;;;3.09;100.00
12759;BME280;20944;47.048;15.390;2023-01-01T00:10:46;98338.53;;;2.99;100.00
12759;BME280;20944;47.048;15.390;2023-01-01T00:13:14;98336.63;;;2.87;100.00
12759;BME280;20944;47.048;15.390;2023-01-01T00:15:43;98280.97;;;2.53;100.00
12759;BME280;20944;47.048;15.390;2023-01-01T00:18:12;98328.84;;;2.86;100.00
12759;BME280;20944;47.048;15.390;2023-01-01T00:20:41;98327.13;;;2.86;100.00
12759;BME280;20944;47.048;15.390;2023-01-01T00:23:09;98331.38;;;2.81;100.00
12759;BME280;20944;47.048;15.390;2023-01-01T00:25:39;98203.63;;;2.09;100.00
12759;BME280;20944;47.048;15.390;2023-01-01T00:28:09;98321.88;;;2.82;100.00
12759;BME280;20944;47.048;15.390;2023-01-01T00:30:40;98336.53;;;2.81;100.00
12759;BME280;20944;47.048;15.390;2023-01-01T00:33:09;98330.59;;;2.87;100.00
12759;BME280;20944;47.048;15.390;2023-01-01T00:35:38;98303.66;;;2.73;100.00
12759;BME280;20944;47.048;15.390;2023-01-01T00:38:07;98328.88;;;2.87;100.00
12759;BME280;20944;47.048;15.390;2023-01-01T00:40:35;98325.50;;;2.93;100.00
12759;BME280;20944;47.048;15.390;2023-01-01T00:43:04;98280.44;;;2.79;100.00
12759;BME280;20944;47.048;15.390;2023-01-01T00:45:34;98317.69;;;2.90;100.00
12759;BME280;20944;47.048;15.390;2023-01-01T00:48:03;98316.69;;;2.79;100.00
12759;BME280;20944;47.048;15.390;2023-01-01T00:50:32;98309.78;;;2.79;100.00
12759;BME280;20944;47.048;15.390;2023-01-01T00:53:00;98296.75;;;2.72;100.00
12759;BME280;20944;47.048;15.390;2023-01-01T00:55:29;98305.44;;;2.77;100.00
12759;BME280;20944;47.048;15.390;2023-01-01T00:57:58;98283.66;;;2.62;100.00
12759;BME280;20944;47.048;15.390;2023-01-01T01:00:26;98317.56;;;2.81;100.00
12759;BME280;20944;47.048;15.390;2023-01-01T01:02:56;98307.00;;;2.65;100.00
12759;BME280;20944;47.048;15.390;2023-01-01T01:05:26;98314.59;;;2.55;100.00
12759;BME280;20944;47.048;15.390;2023-01-01T01:07:54;98326.78;;;2.62;100.00
12759;BME280;20944;47.048;15.390;2023-01-01T01:10:23;98256.41;;;2.25;100.00
12759;BME280;20944;47.048;15.390;2023-01-01T01:12:53;98315.53;;;2.58;100.00
12759;BME280;20944;47.048;15.390;2023-01-01T01:15:21;98321.53;;;2.57;100.00
12759;BME280;20944;47.048;15.390;2023-01-01T01:17:50;98333.66;;;2.60;100.00
12759;BME280;20944;47.048;15.390;2023-01-01T01:20:20;98319.88;;;2.62;100.00
12759;BME280;20944;47.048;15.390;2023-01-01T01:22:49;98325.88;;;2.58;100.00
12759;BME280;20944;47.048;15.390;2023-01-01T01:25:18;98320.44;;;2.43;100.00
12759;BME280;20944;47.048;15.390;2023-01-01T01:27:46;98330.09;;;2.52;100.00
12759;BME280;20944;47.048;15.390;2023-01-01T01:30:15;98323.97;;;2.48;100.00
12759;BME280;20944;47.048;15.390;2023-01-01T01:32:44;98323.91;;;2.43;100.00
12759;BME280;20944;47.048;15.390;2023-01-01T01:35:13;98323.97;;;2.48;100.00
12759;BME280;20944;47.048;15.390;2023-01-01T01:37:43;98323.19;;;2.52;100.00
12759;BME280;20944;47.048;15.390;2023-01-01T01:40:12;98318.03;;;2.52;100.00
12759;BME280;20944;47.048;15.390;2023-01-01T01:42:46;98315.34;;;2.46;100.00
12759;BME280;20944;47.048;15.390;2023-01-01T01:45:16;98319.50;;;2.38;100.00
12759;BME280;20944;47.048;15.390;2023-01-01T01:47:48;98310.78;;;2.31;100.00
12759;BME280;20944;47.048;15.390;2023-01-01T01:50:22;98312.50;;;2.31;100.00
12759;BME280;20944;47.048;15.390;2023-01-01T01:53:01;98317.59;;;2.26;100.00
12759;BME280;20944;47.048;15.390;2023-01-01T01:55:34;98314.13;;;2.26;100.00
12759;BME280;20944;47.048;15.390;2023-01-01T01:58:08;98286.34;;;2.11;100.00
12759;BME280;20944;47.048;15.390;2023-01-01T02:00:37;98289.84;;;2.14;100.00
12759;BME280;20944;47.048;15.390;2023-01-01T02:03:07;98243.72;;;1.87;100.00
12759;BME280;20944;47.048;15.390;2023-01-01T02:05:38;98141.91;;;1.20;100.00
12759;BME280;20944;47.048;15.390;2023-01-01T02:08:10;98272.53;;;2.10;100.00
12759;BME280;20944;47.048;15.390;2023-01-01T02:10:40;98296.03;;;2.24;100.00
12759;BME280;20944;47.048;15.390;2023-01-01T02:13:09;98275.88;;;2.02;100.00
12759;BME280;20944;47.048;15.390;2023-01-01T02:15:41;98286.63;;;2.28;100.00
12759;BME280;20944;47.048;15.390;2023-01-01T02:18:13;98272.41;;;2.01;100.00
12759;BME280;20944;47.048;15.390;2023-01-01T02:20:49;98288.00;;;2.07;100.00
12759;BME280;20944;47.048;15.390;2023-01-01T02:23:52;98279.22;;;1.96;100.00
12759;BME280;20944;47.048;15.390;2023-01-01T02:26:39;98249.53;;;1.73;100.00
12759;BME280;20944;47.048;15.390;2023-01-01T02:29:18;98212.19;;;1.54;100.00
12759;BME280;20944;47.048;15.390;2023-01-01T02:31:53;98234.91;;;1.73;100.00
12759;BME280;20944;47.048;15.390;2023-01-01T02:34:27;98260.28;;;1.97;100.00
12759;BME280;20944;47.048;15.390;2023-01-01T02:36:58;98256.09;;;2.07;100.00
12759;BME280;20944;47.048;15.390;2023-01-01T02:39:31;98255.25;;;2.06;100.00
12759;BME280;20944;47.048;15.390;2023-01-01T02:42:02;98239.53;;;1.93;100.00
12759;BME280;20944;47.048;15.390;2023-01-01T02:44:39;98179.41;;;1.50;100.00
12759;BME280;20944;47.048;15.390;2023-01-01T02:47:11;98263.84;;;2.05;100.00
12759;BME280;20944;47.048;15.390;2023-01-01T02:49:54;98262.88;;;2.00;100.00
12759;BME280;20944;47.048;15.390;2023-01-01T02:52:52;98262.00;;;1.98;100.00
12759;BME280;20944;47.048;15.390;2023-01-01T02:55:30;98264.56;;;1.95;100.00
12759;BME280;20944;47.048;15.390;2023-01-01T02:58:11;98224.63;;;1.76;100.00
12759;BME280;20944;47.048;15.390;2023-01-01T03:01:08;98227.25;;;1.79;100.00
12759;BME280;20944;47.048;15.390;2023-01-01T03:03:47;98256.91;;;2.03;100.00
12759;BME280;20944;47.048;15.390;2023-01-01T03:06:26;98232.31;;;1.73;100.00
12759;BME280;20944;47.048;15.390;2023-01-01T03:09:07;98226.38;;;1.77;100.00
12759;BME280;20944;47.048;15.390;2023-01-01T03:11:46;98263.81;;;2.02;100.00
12759;BME280;20944;47.048;15.390;2023-01-01T03:14:23;98241.16;;;1.87;100.00
12759;BME280;20944;47.048;15.390;2023-01-01T03:17:02;98265.53;;;2.03;100.00
12759;BME280;20944;47.048;15.390;2023-01-01T03:19:36;98150.75;;;1.33;100.00
12759;BME280;20944;47.048;15.390;2023-01-01T03:22:10;98265.53;;;2.02;100.00
12759;BME280;20944;47.048;15.390;2023-01-01T03:24:46;98261.13;;;1.96;100.00
12759;BME280;20944;47.048;15.390;2023-01-01T03:27:20;98100.38;;;1.06;100.00
12759;BME280;20944;47.048;15.390;2023-01-01T03:29:54;98254.31;;;2.01;100.00
12759;BME280;20944;47.048;15.390;2023-01-01T03:32:30;98215.25;;;1.83;100.00
12759;BME280;20944;47.048;15.390;2023-01-01T03:35:17;98250.03;;;2.03;100.00
12759;BME280;20944;47.048;15.390;2023-01-01T03:37:50;98229.84;;;1.81;100.00
12759;BME280;20944;47.048;15.390;2023-01-01T03:40:25;98251.53;;;1.89;100.00
12759;BME280;20944;47.048;15.390;2023-01-01T03:43:02;98250.69;;;1.92;100.00
12759;BME280;20944;47.048;15.390;2023-01-01T03:45:37;98063.97;;;0.88;100.00
12759;BME280;20944;47.048;15.390;2023-01-01T03:48:12;98264.56;;;1.97;100.00
12759;BME280;20944;47.048;15.390;2023-01-01T03:50:55;98253.41;;;1.99;100.00
12759;BME280;20944;47.048;15.390;2023-01-01T03:53:35;98227.47;;;1.93;100.00
12759;BME280;20944;47.048;15.390;2023-01-01T03:56:16;98218.00;;;1.94;100.00
12759;BME280;20944;47.048;15.390;2023-01-01T03:58:54;98247.75;;;2.22;100.00
12759;BME280;20944;47.048;15.390;2023-01-01T04:01:32;98238.75;;;1.98;100.00
12759;BME280;20944;47.048;15.390;2023-01-01T04:04:07;98180.34;;;1.53;100.00
12759;BME280;20944;47.048;15.390;2023-01-01T04:06:38;98258.34;;;1.84;100.00
12759;BME280;20944;47.048;15.390;2023-01-01T04:09:12;98137.47;;;1.13;100.00
12759;BME280;20944;47.048;15.390;2023-01-01T04:11:46;98103.75;;;1.02;100.00
12759;BME280;20944;47.048;15.390;2023-01-01T04:14:35;98237.59;;;1.81;100.00
12759;BME280;20944;47.048;15.390;2023-01-01T04:17:08;98061.97;;;0.75;100.00
12759;BME280;20944;47.048;15.390;2023-01-01T04:19:41;98218.44;;;1.67;100.00
12759;BME280;20944;47.048;15.390;2023-01-01T04:22:20;98234.28;;;1.88;100.00
12759;BME280;20944;47.048;15.390;2023-01-01T04:24:50;98183.91;;;1.61;100.00
12759;BME280;20944;47.048;15.390;2023-01-01T04:27:21;98227.44;;;1.90;100.00
12759;BME280;20944;47.048;15.390;2023-01-01T04:29:51;98229.19;;;1.93;100.00
12759;BME280;20944;47.048;15.390;2023-01-01T04:32:21;98223.38;;;2.07;100.00
12759;BME280;20944;47.048;15.390;2023-01-01T04:34:53;98273.88;;;1.87;100.00
12759;BME280;20944;47.048;15.390;2023-01-01T04:37:24;98210.31;;;1.98;100.00
12759;BME280;20944;47.048;15.390;2023-01-01T04:39:55;98186.94;;;1.89;100.00
12759;BME280;20944;47.048;15.390;2023-01-01T04:42:25;98226.03;;;2.10;100.00
12759;BME280;20944;47.048;15.390;2023-01-01T04:44:55;98222.38;;;1.96;100.00
12759;BME280;20944;47.048;15.390;2023-01-01T04:47:26;98225.72;;;1.92;100.00
12759;BME280;20944;47.048;15.390;2023-01-01T04:49:57;98198.81;;;1.78;100.00
12759;BME280;20944;47.048;15.390;2023-01-01T04:52:28;98238.00;;;2.07;100.00
12759;BME280;20944;47.048;15.390;2023-01-01T04:54:58;98245.81;;;2.08;100.00
12759;BME280;20944;47.048;15.390;2023-01-01T04:57:29;98272.47;;;2.06;100.00
12759;BME280;20944;47.048;15.390;2023-01-01T04:59:59;98072.84;;;1.05;100.00
12759;BME280;20944;47.048;15.390;2023-01-01T05:02:29;98229.38;;;2.05;100.00
12759;BME280;20944;47.048;15.390;2023-01-01T05:05:01;98239.06;;;2.20;100.00
12759;BME280;20944;47.048;15.390;2023-01-01T05:07:32;98246.88;;;2.21;100.00
12759;BME280;20944;47.048;15.390;2023-01-01T05:10:04;98195.59;;;1.93;100.00
12759;BME280;20944;47.048;15.390;2023-01-01T05:12:34;98213.78;;;2.00;100.00
12759;BME280;20944;47.048;15.390;2023-01-01T05:15:06;98240.69;;;2.11;100.00
12759;BME280;20944;47.048;15.390;2023-01-01T05:17:36;98256.28;;;2.17;100.00
12759;BME280;20944;47.048;15.390;2023-01-01T05:20:09;98254.56;;;2.20;100.00
12759;BME280;20944;47.048;15.390;2023-01-01T05:22:40;98250.34;;;2.25;100.00
12759;BME280;20944;47.048;15.390;2023-01-01T05:25:10;98243.44;;;2.24;100.00
12759;BME280;20944;47.048;15.390;2023-01-01T05:27:40;98147.94;;;1.74;100.00
12759;BME280;20944;47.048;15.390;2023-01-01T05:30:11;98016.41;;;0.74;100.00
12759;BME280;20944;47.048;15.390;2023-01-01T05:32:42;98258.09;;;2.25;100.00
12759;BME280;20944;47.048;15.390;2023-01-01T05:35:13;98203.44;;;1.97;100.00
12759;BME280;20944;47.048;15.390;2023-01-01T05:37:51;98104.28;;;1.34;100.00
12759;BME280;20944;47.048;15.390;2023-01-01T05:40:22;98243.53;;;2.28;100.00
12759;BME280;20944;47.048;15.390;2023-01-01T05:42:53;98254.66;;;2.23;100.00
12759;BME280;20944;47.048;15.390;2023-01-01T05:45:24;98248.63;;;2.25;100.00
12759;BME280;20944;47.048;15.390;2023-01-01T05:47:54;98255.44;;;2.19;100.00
12759;BME280;20944;47.048;15.390;2023-01-01T05:50:27;98163.25;;;1.61;100.00
12759;BME280;20944;47.048;15.390;2023-01-01T05:52:58;98235.31;;;1.98;100.00
12759;BME280;20944;47.048;15.390;2023-01-01T05:55:28;98218.13;;;2.01;100.00
12759;BME280;20944;47.048;15.390;2023-01-01T05:57:58;98050.44;;;1.03;100.00
12759;BME280;20944;47.048;15.390;2023-01-01T06:00:29;98234.72;;;2.17;100.00
12759;BME280;20944;47.048;15.390;2023-01-01T06:02:59;98183.34;;;1.79;100.00
12759;BME280;20944;47.048;15.390;2023-01-01T06:05:31;98205.25;;;2.03;100.00
12759;BME280;20944;47.048;15.390;2023-01-01T06:08:01;98244.22;;;2.16;100.00
12759;BME280;20944;47.048;15.390;2023-01-01T06:10:31;98224.09;;;1.97;100.00
12759;BME280;20944;47.048;15.390;2023-01-01T06:13:01;98250.88;;;2.02;100.00
12759;BME280;20944;47.048;15.390;2023-01-01T06:15:39;98228.09;;;1.78;100.00
12759;BME280;20944;47.048;15.390;2023-01-01T06:18:09;98250.91;;;2.05;100.00
12759;BME280;20944;47.048;15.390;2023-01-01T06:20:41;98251.88;;;2.10;100.00
12759;BME280;20944;47.048;15.390;2023-01-01T06:23:11;98261.44;;;2.16;100.00
12759;BME280;20944;47.048;15.390;2023-01-01T06:25:42;98271.81;;;2.19;100.00
12759;BME280;20944;47.048;15.390;2023-01-01T06:28:12;98265.78;;;2.19;100.00
12759;BME280;20944;47.048;15.390;2023-01-01T06:30:42;98282.22;;;2.22;100.00
12759;BME280;20944;47.048;15.390;2023-01-01T06:33:12;98276.09;;;2.19;100.00
12759;BME280;20944;47.048;15.390;2023-01-01T06:35:44;98285.59;;;2.20;100.00
12759;BME280;20944;47.048;15.390;2023-01-01T06:38:14;98275.16;;;2.13;100.00
12759;BME280;20944;47.048;15.390;2023-01-01T06:40:44;98245.72;;;2.02;100.00
12759;BME280;20944;47.048;15.390;2023-01-01T06:43:23;98276.88;;;2.13;100.00
12759;BME280;20944;47.048;15.390;2023-01-01T06:46:02;98279.53;;;2.17;100.00
12759;BME280;20944;47.048;15.390;2023-01-01T06:48:34;98237.91;;;1.99;100.00
12759;BME280;20944;47.048;15.390;2023-01-01T06:51:08;98246.69;;;2.10;100.00
12759;BME280;20944;47.048;15.390;2023-01-01T06:53:38;98274.63;;;2.33;100.00
12759;BME280;20944;47.048;15.390;2023-01-01T06:56:09;98234.22;;;1.85;100.00
12759;BME280;20944;47.048;15.390;2023-01-01T06:58:39;98275.25;;;2.20;100.00
12759;BME280;20944;47.048;15.390;2023-01-01T07:01:12;98222.19;;;1.87;100.00
12759;BME280;20944;47.048;15.390;2023-01-01T07:03:48;98276.19;;;2.23;100.00
12759;BME280;20944;47.048;15.390;2023-01-01T07:06:20;98238.09;;;2.11;100.00
12759;BME280;20944;47.048;15.390;2023-01-01T07:08:51;98278.91;;;2.32;100.00
12759;BME280;20944;47.048;15.390;2023-01-01T07:11:21;98224.94;;;1.96;100.00
12759;BME280;20944;47.048;15.390;2023-01-01T07:13:52;98278.19;;;2.39;100.00
12759;BME280;20944;47.048;15.390;2023-01-01T07:16:22;98250.22;;;2.15;100.00
12759;BME280;20944;47.048;15.390;2023-01-01T07:18:53;98291.81;;;2.31;100.00
12759;BME280;20944;47.048;15.390;2023-01-01T07:21:28;98256.91;;;2.03;100.00
12759;BME280;20944;47.048;15.390;2023-01-01T07:24:00;98311.75;;;2.38;100.00
12759;BME280;20944;47.048;15.390;2023-01-01T07:26:31;98127.53;;;1.34;100.00
12759;BME280;20944;47.048;15.390;2023-01-01T07:29:02;98319.69;;;2.49;100.00
12759;BME280;20944;47.048;15.390;2023-01-01T07:31:35;98308.53;;;2.53;100.00
12759;BME280;20944;47.048;15.390;2023-01-01T07:34:06;98261.63;;;2.28;100.00
12759;BME280;20944;47.048;15.390;2023-01-01T07:36:39;98327.50;;;2.53;100.00
12759;BME280;20944;47.048;15.390;2023-01-01T07:39:10;98312.78;;;2.49;100.00
12759;BME280;20944;47.048;15.390;2023-01-01T07:41:41;98316.41;;;2.59;100.00
12759;BME280;20944;47.048;15.390;2023-01-01T07:44:11;98321.63;;;2.63;100.00
12759;BME280;20944;47.048;15.390;2023-01-01T07:46:42;98314.84;;;2.72;100.00
12759;BME280;20944;47.048;15.390;2023-01-01T07:49:12;98046.38;;;1.19;100.00
12759;BME280;20944;47.048;15.390;2023-01-01T07:51:44;98264.50;;;2.50;100.00
12759;BME280;20944;47.048;15.390;2023-01-01T07:54:15;98328.88;;;2.89;100.00
12759;BME280;20944;47.048;15.390;2023-01-01T07:56:45;98318.59;;;2.92;100.00
12759;BME280;20944;47.048;15.390;2023-01-01T07:59:15;98345.44;;;3.02;100.00
12759;BME280;20944;47.048;15.390;2023-01-01T08:01:47;98270.81;;;2.67;100.00
12759;BME280;20944;47.048;15.390;2023-01-01T08:04:18;98344.78;;;3.15;100.00
12759;BME280;20944;47.048;15.390;2023-01-01T08:06:49;98353.38;;;3.12;100.00
12759;BME280;20944;47.048;15.390;2023-01-01T08:09:20;98354.22;;;3.11;100.00
12759;BME280;20944;47.048;15.390;2023-01-01T08:11:51;98362.03;;;3.14;100.00
12759;BME280;20944;47.048;15.390;2023-01-01T08:14:21;98356.81;;;3.13;100.00
12759;BME280;20944;47.048;15.390;2023-01-01T08:16:51;98282.19;;;2.80;100.00
12759;BME280;20944;47.048;15.390;2023-01-01T08:19:21;98365.69;;;3.32;100.00
12759;BME280;20944;47.048;15.390;2023-01-01T08:21:53;98365.84;;;3.41;100.00
12759;BME280;20944;47.048;15.390;2023-01-01T08:24:24;98350.50;;;3.59;100.00
12759;BME280;20944;47.048;15.390;2023-01-01T08:26:54;98360.09;;;3.68;100.00
12759;BME280;20944;47.048;15.390;2023-01-01T08:29:24;98348.94;;;3.73;100.00
12759;BME280;20944;47.048;15.390;2023-01-01T08:31:55;98324.75;;;3.74;100.00
12759;BME280;20944;47.048;15.390;2023-01-01T08:34:25;98276.06;;;3.43;100.00
12759;BME280;20944;47.048;15.390;2023-01-01T08:36:57;98356.84;;;3.87;100.00
12759;BME280;20944;47.048;15.390;2023-01-01T08:39:28;98320.34;;;3.66;100.00
12759;BME280;20944;47.048;15.390;2023-01-01T08:41:58;98323.03;;;3.76;100.00
12759;BME280;20944;47.048;15.390;2023-01-01T08:44:35;98345.00;;;4.12;100.00
12759;BME280;20944;47.048;15.390;2023-01-01T08:47:05;98346.03;;;4.32;100.00
12759;BME280;20944;47.048;15.390;2023-01-01T08:49:36;98301.94;;;4.28;100.00
12759;BME280;20944;47.048;15.390;2023-01-01T08:52:07;98335.91;;;4.63;100.00
12759;BME280;20944;47.048;15.390;2023-01-01T08:54:38;98352.47;;;4.83;100.00
12759;BME280;20944;47.048;15.390;2023-01-01T08:57:08;98231.81;;;4.17;100.00
12759;BME280;20944;47.048;15.390;2023-01-01T08:59:39;98321.34;;;4.90;100.00
12759;BME280;20944;47.048;15.390;2023-01-01T09:02:09;98364.91;;;5.38;100.00
12759;BME280;20944;47.048;15.390;2023-01-01T09:04:40;98371.06;;;5.55;100.00
12759;BME280;20944;47.048;15.390;2023-01-01T09:07:11;98228.69;;;4.73;100.00
12759;BME280;20944;47.048;15.390;2023-01-01T09:09:42;98348.53;;;5.59;100.00
12759;BME280;20944;47.048;15.390;2023-01-01T09:12:13;98367.69;;;5.82;100.00
12759;BME280;20944;47.048;15.390;2023-01-01T09:14:46;98368.56;;;5.89;100.00
12759;BME280;20944;47.048;15.390;2023-01-01T09:17:17;98328.75;;;5.93;100.00
12759;BME280;20944;47.048;15.390;2023-01-01T09:19:47;98366.97;;;6.37;100.00
12759;BME280;20944;47.048;15.390;2023-01-01T09:22:19;98326.19;;;6.25;100.00
12759;BME280;20944;47.048;15.390;2023-01-01T09:24:50;98303.59;;;6.15;100.00
12759;BME280;20944;47.048;15.390;2023-01-01T09:27:20;98355.69;;;6.55;100.00
12759;BME280;20944;47.048;15.390;2023-01-01T09:29:50;98393.88;;;6.74;100.00
12759;BME280;20944;47.048;15.390;2023-01-01T09:32:20;98388.66;;;6.92;100.00
12759;BME280;20944;47.048;15.390;2023-01-01T09:34:51;98327.03;;;6.79;100.00
12759;BME280;20944;47.048;15.390;2023-01-01T09:37:23;98385.13;;;7.22;100.00
12759;BME280;20944;47.048;15.390;2023-01-01T09:39:54;98380.72;;;7.49;100.00
12759;BME280;20944;47.048;15.390;2023-01-01T09:42:34;98384.94;;;7.73;100.00
12759;BME280;20944;47.048;15.390;2023-01-01T09:45:22;98362.34;;;7.76;100.00
12759;BME280;20944;47.048;15.390;2023-01-01T09:47:56;98386.56;;;8.01;100.00
12759;BME280;20944;47.048;15.390;2023-01-01T09:50:31;98338.81;;;7.89;100.00
12759;BME280;20944;47.048;15.390;2023-01-01T09:53:09;98374.31;;;8.14;100.00
12759;BME280;20944;47.048;15.390;2023-01-01T09:55:45;98373.41;;;8.17;100.00
12759;BME280;20944;47.048;15.390;2023-01-01T09:58:18;98364.72;;;8.19;100.00
12759;BME280;20944;47.048;15.390;2023-01-01T10:00:52;98369.91;;;8.21;100.00
12759;BME280;20944;47.048;15.390;2023-01-01T10:03:34;98369.09;;;8.17;100.00
12759;BME280;20944;47.048;15.390;2023-01-01T10:06:18;98383.00;;;8.15;100.00
12759;BME280;20944;47.048;15.390;2023-01-01T10:09:08;98377.78;;;8.15;100.00
12759;BME280;20944;47.048;15.390;2023-01-01T10:11:47;98367.34;;;8.15;100.00
12759;BME280;20944;47.048;15.390;2023-01-01T10:14:24;98271.84;;;7.88;100.00
12759;BME280;20944;47.048;15.390;2023-01-01T10:17:00;98355.00;;;8.44;100.00
12759;BME280;20944;47.048;15.390;2023-01-01T10:19:35;98386.91;;;8.80;100.00
12759;BME280;20944;47.048;15.390;2023-01-01T10:22:10;98309.69;;;8.50;100.00
12759;BME280;20944;47.048;15.390;2023-01-01T10:24:46;98364.06;;;9.03;100.00
12759;BME280;20944;47.048;15.390;2023-01-01T10:27:28;98389.09;;;9.30;100.00
12759;BME280;20944;47.048;15.390;2023-01-01T10:30:03;98361.25;;;9.22;100.00
12759;BME280;20944;47.048;15.390;2023-01-01T10:32:36;98381.91;;;9.48;100.00
12759;BME280;20944;47.048;15.390;2023-01-01T10:35:11;98357.47;;;9.50;100.00
12759;BME280;20944;47.048;15.390;2023-01-01T10:37:43;98375.56;;;9.68;100.00
12759;BME280;20944;47.048;15.390;2023-01-01T10:40:18;98369.38;;;9.76;100.00
12759;BME280;20944;47.048;15.390;2023-01-01T10:42:50;98362.34;;;9.78;100.00
12759;BME280;20944;47.048;15.390;2023-01-01T10:45:28;98269.56;;;9.37;100.00
12759;BME280;20944;47.048;15.390;2023-01-01T10:48:13;98374.16;;;10.09;100.00
12759;BME280;20944;47.048;15.390;2023-01-01T10:50:47;98329.78;;;9.98;100.00
12759;BME280;20944;47.048;15.390;2023-01-01T10:53:24;98343.59;;;10.10;100.00
12759;BME280;20944;47.048;15.390;2023-01-01T10:56:02;98364.16;;;10.39;100.00
12759;BME280;20944;47.048;15.390;2023-01-01T10:58:36;98363.06;;;10.52;100.00
12759;BME280;20944;47.048;15.390;2023-01-01T11:01:08;98362.88;;;10.64;100.00
12759;BME280;20944;47.048;15.390;2023-01-01T11:03:53;98350.38;;;10.80;100.00
12759;BME280;20944;47.048;15.390;2023-01-01T11:06:26;98351.84;;;10.96;100.00
12759;BME280;20944;47.048;15.390;2023-01-01T11:08:58;98316.19;;;10.86;100.00
12759;BME280;20944;47.048;15.390;2023-01-01T11:11:41;98350.50;;;11.22;100.00
12759;BME280;20944;47.048;15.390;2023-01-01T11:14:20;98342.53;;;11.28;100.00
12759;BME280;20944;47.048;15.390;2023-01-01T11:16:52;98336.19;;;11.40;100.00
12759;BME280;20944;47.048;15.390;2023-01-01T11:19:26;98332.59;;;11.44;100.00
12759;BME280;20944;47.048;15.390;2023-01-01T11:21:58;98328.72;;;11.61;100.00
12759;BME280;20944;47.048;15.390;2023-01-01T11:24:30;98273.97;;;11.45;100.00
12759;BME280;20944;47.048;15.390;2023-01-01T11:27:19;98312.56;;;11.83;100.00
12759;BME280;20944;47.048;15.390;2023-01-01T11:29:51;98301.75;;;11.97;100.00
12759;BME280;20944;47.048;15.390;2023-01-01T11:32:41;98270.72;;;12.14;100.00
12759;BME280;20944;47.048;15.390;2023-01-01T11:35:20;98303.09;;;12.52;100.00
12759;BME280;20944;47.048;15.390;2023-01-01T11:37:52;98276.81;;;12.52;100.00
12759;BME280;20944;47.048;15.390;2023-01-01T11:40:24;98298.78;;;12.83;100.00
12759;BME280;20944;47.048;15.390;2023-01-01T11:42:59;98306.19;;;13.02;100.00
12759;BME280;20944;47.048;15.390;2023-01-01T11:45:32;98287.59;;;13.08;100.00
12759;BME280;20944;47.048;15.390;2023-01-01T11:48:09;98301.00;;;13.31;73.60
12759;BME280;20944;47.048;15.390;2023-01-01T11:50:49;98274.13;;;13.18;73.32
12759;BME280;20944;47.048;15.390;2023-01-01T11:53:27;98298.09;;;13.42;72.56
12759;BME280;20944;47.048;15.390;2023-01-01T11:56:05;98296.94;;;13.52;72.37
12759;BME280;20944;47.048;15.390;2023-01-01T11:58:47;98253.38;;;13.40;72.45
12759;BME280;20944;47.048;15.390;2023-01-01T12:01:25;98294.94;;;13.88;71.51
12759;BME280;20944;47.048;15.390;2023-01-01T12:04:01;98300.56;;;14.06;70.85
12759;BME280;20944;47.048;15.390;2023-01-01T12:06:37;98125.50;;;13.33;69.92
12759;BME280;20944;47.048;15.390;2023-01-01T12:09:12;98274.25;;;14.32;69.28
12759;BME280;20944;47.048;15.390;2023-01-01T12:11:48;98252.22;;;14.35;67.85
12759;BME280;20944;47.048;15.390;2023-01-01T12:14:36;98283.16;;;14.56;66.86
12759;BME280;20944;47.048;15.390;2023-01-01T12:17:16;98282.19;;;14.85;66.03
12759;BME280;20944;47.048;15.390;2023-01-01T12:19:55;98284.00;;;15.08;65.26
12759;BME280;20944;47.048;15.390;2023-01-01T12:22:28;98269.06;;;15.08;64.35
12759;BME280;20944;47.048;15.390;2023-01-01T12:24:59;98270.13;;;15.28;64.08
12759;BME280;20944;47.048;15.390;2023-01-01T12:27:50;98245.81;;;15.18;64.73
12759;BME280;20944;47.048;15.390;2023-01-01T12:30:31;98252.28;;;15.34;63.73
12759;BME280;20944;47.048;15.390;2023-01-01T12:33:34;98274.06;;;15.64;63.70
12759;BME280;20944;47.048;15.390;2023-01-01T12:36:18;98275.06;;;15.84;64.30
12759;BME280;20944;47.048;15.390;2023-01-01T12:39:35;98281.34;;;15.81;63.90
12759;BME280;20944;47.048;15.390;2023-01-01T12:42:17;98153.63;;;14.89;64.11
12759;BME280;20944;47.048;15.390;2023-01-01T12:45:12;98273.28;;;15.61;64.41
12759;BME280;20944;47.048;15.390;2023-01-01T12:47:58;98278.94;;;15.75;64.29
12759;BME280;20944;47.048;15.390;2023-01-01T12:50:38;98265.44;;;15.59;64.80
12759;BME280;20944;47.048;15.390;2023-01-01T12:53:24;98181.31;;;14.77;65.75
12759;BME280;20944;47.048;15.390;2023-01-01T12:56:10;98279.94;;;15.24;65.72
12759;BME280;20944;47.048;15.390;2023-01-01T12:58:53;98273.59;;;15.05;65.36
12759;BME280;20944;47.048;15.390;2023-01-01T13:01:27;98282.09;;;14.62;68.09
12759;BME280;20944;47.048;15.390;2023-01-01T13:04:03;98253.13;;;14.06;68.17
12759;BME280;20944;47.048;15.390;2023-01-01T13:06:38;98290.34;;;13.95;70.73
12759;BME280;20944;47.048;15.390;2023-01-01T13:09:13;98261.56;;;13.61;70.90
12759;BME280;20944;47.048;15.390;2023-01-01T13:11:45;98277.97;;;13.69;70.80
12759;BME280;20944;47.048;15.390;2023-01-01T13:14:17;98290.47;;;14.20;69.76
12759;BME280;20944;47.048;15.390;2023-01-01T13:16:49;98096.53;;;14.38;68.10
12759;BME280;20944;47.048;15.390;2023-01-01T13:19:30;98188.72;;;17.10;62.19
12759;BME280;20944;47.048;15.390;2023-01-01T13:25:20;98289.75;;;21.00;52.82
12759;BME280;20944;47.048;15.390;2023-01-01T13:28:09;98285.16;;;21.90;49.37